sensor_id;sensor_type;location;lat;lon;timestamp;P1;durP1;ratioP1;P2;durP2;ratioP2
78960;SDS011;68362;45.970;12.646;2024-02-23T00:00:06;25.90;;;13.00;;
78960;SDS011;68362;45.970;12.646;2024-02-23T00:01:10;22.48;;;11.95;;
78960;SDS011;68362;45.970;12.646;2024-02-23T00:02:13;22.17;;;14.52;;
78960;SDS011;68362;45.970;12.646;2024-02-23T00:03:16;22.63;;;13.63;;
78960;SDS011;68362;45.970;12.646;2024-02-23T00:04:18;22.20;;;14.10;;
78960;SDS011;68362;45.970;12.646;2024-02-23T00:05:20;26.63;;;13.30;;
78960;SDS011;68362;45.970;12.646;2024-02-23T00:06:23;25.05;;;13.75;;
78960;SDS011;68362;45.970;12.646;2024-02-23T00:07:29;19.73;;;11.85;;
78960;SDS011;68362;45.970;12.646;2024-02-23T00:08:32;24.40;;;12.35;;
78960;SDS011;68362;45.970;12.646;2024-02-23T00:09:35;26.35;;;14.10;;
78960;SDS011;68362;45.970;12.646;2024-02-23T00:10:37;20.90;;;13.55;;
78960;SDS011;68362;45.970;12.646;2024-02-23T00:11:40;24.17;;;12.95;;
78960;SDS011;68362;45.970;12.646;2024-02-23T00:12:46;19.05;;;12.38;;
78960;SDS011;68362;45.970;12.646;2024-02-23T00:13:52;21.25;;;12.77;;
78960;SDS011;68362;45.970;12.646;2024-02-23T00:14:54;21.80;;;12.90;;
78960;SDS011;68362;45.970;12.646;2024-02-23T00:15:56;19.58;;;11.18;;
78960;SDS011;68362;45.970;12.646;2024-02-23T00:16:58;21.67;;;11.50;;
78960;SDS011;68362;45.970;12.646;2024-02-23T00:18:03;19.63;;;11.88;;
78960;SDS011;68362;45.970;12.646;2024-02-23T00:19:08;18.45;;;11.52;;
78960;SDS011;68362;45.970;12.646;2024-02-23T00:20:14;21.83;;;12.77;;
78960;SDS011;68362;45.970;12.646;2024-02-23T00:21:17;18.67;;;11.95;;
78960;SDS011;68362;45.970;12.646;2024-02-23T00:22:19;18.77;;;12.40;;
78960;SDS011;68362;45.970;12.646;2024-02-23T00:23:21;22.95;;;12.90;;
78960;SDS011;68362;45.970;12.646;2024-02-23T00:24:25;20.70;;;13.13;;
78960;SDS011;68362;45.970;12.646;2024-02-23T00:26:29;18.90;;;10.90;;
78960;SDS011;68362;45.970;12.646;2024-02-23T00:27:31;20.13;;;11.30;;
78960;SDS011;68362;45.970;12.646;2024-02-23T00:28:34;23.75;;;13.20;;
78960;SDS011;68362;45.970;12.646;2024-02-23T00:29:36;23.92;;;14.63;;
78960;SDS011;68362;45.970;12.646;2024-02-23T00:30:38;23.20;;;13.23;;
78960;SDS011;68362;45.970;12.646;2024-02-23T00:31:41;23.02;;;14.57;;
78960;SDS011;68362;45.970;12.646;2024-02-23T00:32:43;23.35;;;14.07;;
78960;SDS011;68362;45.970;12.646;2024-02-23T00:33:45;24.67;;;14.15;;
78960;SDS011;68362;45.970;12.646;2024-02-23T00:34:47;25.30;;;12.95;;
78960;SDS011;68362;45.970;12.646;2024-02-23T00:35:49;23.88;;;13.73;;
78960;SDS011;68362;45.970;12.646;2024-02-23T00:36:52;22.90;;;13.35;;
78960;SDS011;68362;45.970;12.646;2024-02-23T00:37:54;22.48;;;13.27;;
78960;SDS011;68362;45.970;12.646;2024-02-23T00:38:56;21.63;;;13.60;;
78960;SDS011;68362;45.970;12.646;2024-02-23T00:39:59;22.27;;;13.60;;
78960;SDS011;68362;45.970;12.646;2024-02-23T00:41:01;22.17;;;14.00;;
78960;SDS011;68362;45.970;12.646;2024-02-23T00:42:03;23.27;;;13.10;;
78960;SDS011;68362;45.970;12.646;2024-02-23T00:43:06;24.30;;;13.48;;
78960;SDS011;68362;45.970;12.646;2024-02-23T00:44:08;23.75;;;13.30;;
78960;SDS011;68362;45.970;12.646;2024-02-23T00:45:10;22.60;;;12.55;;
78960;SDS011;68362;45.970;12.646;2024-02-23T00:46:12;22.35;;;14.13;;
78960;SDS011;68362;45.970;12.646;2024-02-23T00:47:17;19.98;;;11.68;;
78960;SDS011;68362;45.970;12.646;2024-02-23T00:48:20;19.75;;;12.45;;
78960;SDS011;68362;45.970;12.646;2024-02-23T00:49:22;21.83;;;12.38;;
78960;SDS011;68362;45.970;12.646;2024-02-23T00:50:25;21.42;;;11.55;;
78960;SDS011;68362;45.970;12.646;2024-02-23T00:51:30;20.55;;;11.90;;
78960;SDS011;68362;45.970;12.646;2024-02-23T00:52:32;22.40;;;11.82;;
78960;SDS011;68362;45.970;12.646;2024-02-23T00:53:36;22.63;;;12.65;;
78960;SDS011;68362;45.970;12.646;2024-02-23T00:54:38;20.42;;;12.02;;
78960;SDS011;68362;45.970;12.646;2024-02-23T00:55:40;20.40;;;11.52;;
78960;SDS011;68362;45.970;12.646;2024-02-23T00:56:42;19.38;;;11.30;;
78960;SDS011;68362;45.970;12.646;2024-02-23T00:57:52;20.80;;;12.70;;
78960;SDS011;68362;45.970;12.646;2024-02-23T00:58:55;18.27;;;11.30;;
78960;SDS011;68362;45.970;12.646;2024-02-23T00:59:57;18.85;;;11.43;;
78960;SDS011;68362;45.970;12.646;2024-02-23T01:00:59;20.80;;;11.85;;
78960;SDS011;68362;45.970;12.646;2024-02-23T01:03:04;18.67;;;11.07;;
78960;SDS011;68362;45.970;12.646;2024-02-23T01:04:07;19.67;;;11.55;;
78960;SDS011;68362;45.970;12.646;2024-02-23T01:05:09;19.65;;;12.07;;
78960;SDS011;68362;45.970;12.646;2024-02-23T01:06:12;19.85;;;11.38;;
78960;SDS011;68362;45.970;12.646;2024-02-23T01:07:15;21.40;;;12.82;;
78960;SDS011;68362;45.970;12.646;2024-02-23T01:08:17;20.73;;;11.75;;
78960;SDS011;68362;45.970;12.646;2024-02-23T01:09:19;20.85;;;11.77;;
78960;SDS011;68362;45.970;12.646;2024-02-23T01:10:23;20.80;;;11.50;;
78960;SDS011;68362;45.970;12.646;2024-02-23T01:11:26;20.75;;;12.13;;
78960;SDS011;68362;45.970;12.646;2024-02-23T01:12:28;20.55;;;11.75;;
78960;SDS011;68362;45.970;12.646;2024-02-23T01:13:30;19.98;;;13.00;;
78960;SDS011;68362;45.970;12.646;2024-02-23T01:14:33;18.45;;;11.27;;
78960;SDS011;68362;45.970;12.646;2024-02-23T01:15:36;19.50;;;12.77;;
78960;SDS011;68362;45.970;12.646;2024-02-23T01:16:38;19.00;;;12.18;;
78960;SDS011;68362;45.970;12.646;2024-02-23T01:17:40;19.83;;;10.90;;
78960;SDS011;68362;45.970;12.646;2024-02-23T01:18:43;17.95;;;11.52;;
78960;SDS011;68362;45.970;12.646;2024-02-23T01:19:45;22.35;;;12.63;;
78960;SDS011;68362;45.970;12.646;2024-02-23T01:20:48;25.25;;;12.50;;
78960;SDS011;68362;45.970;12.646;2024-02-23T01:21:50;19.23;;;11.95;;
78960;SDS011;68362;45.970;12.646;2024-02-23T01:23:01;22.25;;;12.30;;
78960;SDS011;68362;45.970;12.646;2024-02-23T01:24:03;21.85;;;12.38;;
78960;SDS011;68362;45.970;12.646;2024-02-23T01:25:06;18.95;;;11.25;;
78960;SDS011;68362;45.970;12.646;2024-02-23T01:26:08;19.20;;;11.80;;
78960;SDS011;68362;45.970;12.646;2024-02-23T01:27:11;21.23;;;11.18;;
78960;SDS011;68362;45.970;12.646;2024-02-23T01:28:13;20.60;;;11.15;;
78960;SDS011;68362;45.970;12.646;2024-02-23T01:29:15;17.48;;;11.45;;
78960;SDS011;68362;45.970;12.646;2024-02-23T01:30:18;18.00;;;10.77;;
78960;SDS011;68362;45.970;12.646;2024-02-23T01:31:21;18.92;;;12.05;;
78960;SDS011;68362;45.970;12.646;2024-02-23T01:32:23;19.88;;;11.93;;
78960;SDS011;68362;45.970;12.646;2024-02-23T01:33:25;19.48;;;11.23;;
78960;SDS011;68362;45.970;12.646;2024-02-23T01:34:27;19.90;;;12.13;;
78960;SDS011;68362;45.970;12.646;2024-02-23T01:35:30;16.95;;;10.75;;
78960;SDS011;68362;45.970;12.646;2024-02-23T01:36:32;19.45;;;13.00;;
78960;SDS011;68362;45.970;12.646;2024-02-23T01:37:35;18.83;;;11.15;;
78960;SDS011;68362;45.970;12.646;2024-02-23T01:38:37;20.73;;;12.68;;
78960;SDS011;68362;45.970;12.646;2024-02-23T01:39:39;18.63;;;12.02;;
78960;SDS011;68362;45.970;12.646;2024-02-23T01:40:41;19.40;;;10.70;;
78960;SDS011;68362;45.970;12.646;2024-02-23T01:41:44;17.83;;;11.00;;
78960;SDS011;68362;45.970;12.646;2024-02-23T01:42:46;20.17;;;11.50;;
78960;SDS011;68362;45.970;12.646;2024-02-23T01:43:48;17.83;;;10.88;;
78960;SDS011;68362;45.970;12.646;2024-02-23T01:44:54;20.10;;;11.93;;
78960;SDS011;68362;45.970;12.646;2024-02-23T01:45:59;17.27;;;12.57;;
78960;SDS011;68362;45.970;12.646;2024-02-23T01:47:01;18.05;;;12.20;;
78960;SDS011;68362;45.970;12.646;2024-02-23T01:49:07;19.95;;;12.45;;
78960;SDS011;68362;45.970;12.646;2024-02-23T01:50:10;20.33;;;10.68;;
78960;SDS011;68362;45.970;12.646;2024-02-23T01:51:14;20.05;;;12.57;;
78960;SDS011;68362;45.970;12.646;2024-02-23T01:52:17;23.50;;;12.48;;
78960;SDS011;68362;45.970;12.646;2024-02-23T01:53:20;19.92;;;12.25;;
78960;SDS011;68362;45.970;12.646;2024-02-23T01:54:23;19.25;;;11.52;;
78960;SDS011;68362;45.970;12.646;2024-02-23T01:55:26;19.88;;;12.23;;
78960;SDS011;68362;45.970;12.646;2024-02-23T01:56:29;21.17;;;12.02;;
78960;SDS011;68362;45.970;12.646;2024-02-23T01:57:32;19.60;;;12.23;;
78960;SDS011;68362;45.970;12.646;2024-02-23T01:58:50;19.48;;;10.98;;
78960;SDS011;68362;45.970;12.646;2024-02-23T01:59:54;19.48;;;11.73;;
78960;SDS011;68362;45.970;12.646;2024-02-23T02:00:57;19.02;;;11.70;;
78960;SDS011;68362;45.970;12.646;2024-02-23T02:01:59;18.52;;;11.55;;
78960;SDS011;68362;45.970;12.646;2024-02-23T02:03:01;19.23;;;11.88;;
78960;SDS011;68362;45.970;12.646;2024-02-23T02:04:05;18.33;;;12.10;;
78960;SDS011;68362;45.970;12.646;2024-02-23T02:05:07;18.42;;;11.48;;
78960;SDS011;68362;45.970;12.646;2024-02-23T02:06:10;18.35;;;11.90;;
78960;SDS011;68362;45.970;12.646;2024-02-23T02:07:13;14.70;;;9.98;;
78960;SDS011;68362;45.970;12.646;2024-02-23T02:08:15;17.15;;;11.48;;
78960;SDS011;68362;45.970;12.646;2024-02-23T02:09:19;16.40;;;10.90;;
78960;SDS011;68362;45.970;12.646;2024-02-23T02:10:21;21.75;;;11.98;;
78960;SDS011;68362;45.970;12.646;2024-02-23T02:11:23;18.30;;;10.13;;
78960;SDS011;68362;45.970;12.646;2024-02-23T02:12:28;15.02;;;10.25;;
78960;SDS011;68362;45.970;12.646;2024-02-23T02:13:31;18.25;;;10.70;;
78960;SDS011;68362;45.970;12.646;2024-02-23T02:14:33;13.88;;;9.32;;
78960;SDS011;68362;45.970;12.646;2024-02-23T02:15:36;17.50;;;10.68;;
78960;SDS011;68362;45.970;12.646;2024-02-23T02:16:39;16.38;;;10.13;;
78960;SDS011;68362;45.970;12.646;2024-02-23T02:17:41;16.80;;;10.32;;
78960;SDS011;68362;45.970;12.646;2024-02-23T02:18:43;17.52;;;11.50;;
78960;SDS011;68362;45.970;12.646;2024-02-23T02:19:47;18.52;;;11.02;;
78960;SDS011;68362;45.970;12.646;2024-02-23T02:20:51;16.15;;;9.20;;
78960;SDS011;68362;45.970;12.646;2024-02-23T02:21:55;17.42;;;10.85;;
78960;SDS011;68362;45.970;12.646;2024-02-23T02:22:58;15.40;;;10.30;;
78960;SDS011;68362;45.970;12.646;2024-02-23T02:24:00;18.23;;;10.85;;
78960;SDS011;68362;45.970;12.646;2024-02-23T02:25:03;18.65;;;12.57;;
78960;SDS011;68362;45.970;12.646;2024-02-23T02:26:06;17.90;;;10.40;;
78960;SDS011;68362;45.970;12.646;2024-02-23T02:27:08;17.35;;;10.23;;
78960;SDS011;68362;45.970;12.646;2024-02-23T02:28:11;16.10;;;10.13;;
78960;SDS011;68362;45.970;12.646;2024-02-23T02:29:13;19.40;;;11.43;;
78960;SDS011;68362;45.970;12.646;2024-02-23T02:30:16;17.35;;;10.80;;
78960;SDS011;68362;45.970;12.646;2024-02-23T02:31:18;18.15;;;10.95;;
78960;SDS011;68362;45.970;12.646;2024-02-23T02:32:20;16.65;;;10.73;;
78960;SDS011;68362;45.970;12.646;2024-02-23T02:33:23;17.33;;;10.50;;
78960;SDS011;68362;45.970;12.646;2024-02-23T02:34:25;18.02;;;10.98;;
78960;SDS011;68362;45.970;12.646;2024-02-23T02:35:27;18.83;;;11.00;;
78960;SDS011;68362;45.970;12.646;2024-02-23T02:36:29;18.42;;;11.02;;
78960;SDS011;68362;45.970;12.646;2024-02-23T02:37:32;17.33;;;11.73;;
78960;SDS011;68362;45.970;12.646;2024-02-23T02:38:34;17.98;;;11.73;;
78960;SDS011;68362;45.970;12.646;2024-02-23T02:39:36;21.27;;;11.27;;
78960;SDS011;68362;45.970;12.646;2024-02-23T02:40:38;19.73;;;11.27;;
78960;SDS011;68362;45.970;12.646;2024-02-23T02:41:41;17.60;;;11.95;;
78960;SDS011;68362;45.970;12.646;2024-02-23T02:42:43;20.30;;;12.48;;
78960;SDS011;68362;45.970;12.646;2024-02-23T02:43:45;19.25;;;10.38;;
78960;SDS011;68362;45.970;12.646;2024-02-23T02:44:47;17.27;;;11.13;;
78960;SDS011;68362;45.970;12.646;2024-02-23T02:45:50;14.93;;;9.27;;
78960;SDS011;68362;45.970;12.646;2024-02-23T02:46:52;16.63;;;10.60;;
78960;SDS011;68362;45.970;12.646;2024-02-23T02:47:54;15.98;;;9.93;;
78960;SDS011;68362;45.970;12.646;2024-02-23T02:48:56;15.48;;;9.90;;
78960;SDS011;68362;45.970;12.646;2024-02-23T02:49:59;16.95;;;10.30;;
78960;SDS011;68362;45.970;12.646;2024-02-23T02:51:01;16.70;;;10.68;;
78960;SDS011;68362;45.970;12.646;2024-02-23T02:52:03;16.27;;;9.73;;
78960;SDS011;68362;45.970;12.646;2024-02-23T02:53:05;13.55;;;9.50;;
78960;SDS011;68362;45.970;12.646;2024-02-23T02:54:07;14.80;;;9.07;;
78960;SDS011;68362;45.970;12.646;2024-02-23T02:55:10;15.73;;;9.25;;
78960;SDS011;68362;45.970;12.646;2024-02-23T02:56:12;14.02;;;8.50;;
78960;SDS011;68362;45.970;12.646;2024-02-23T02:57:14;13.43;;;8.90;;
78960;SDS011;68362;45.970;12.646;2024-02-23T02:59:19;12.82;;;7.72;;
78960;SDS011;68362;45.970;12.646;2024-02-23T03:00:23;12.43;;;7.90;;
78960;SDS011;68362;45.970;12.646;2024-02-23T03:01:26;13.73;;;7.88;;
78960;SDS011;68362;45.970;12.646;2024-02-23T03:02:28;12.48;;;8.50;;
78960;SDS011;68362;45.970;12.646;2024-02-23T03:03:31;16.05;;;8.48;;
78960;SDS011;68362;45.970;12.646;2024-02-23T03:04:33;11.18;;;7.78;;
78960;SDS011;68362;45.970;12.646;2024-02-23T03:05:35;12.98;;;9.02;;
78960;SDS011;68362;45.970;12.646;2024-02-23T03:06:39;16.42;;;7.88;;
78960;SDS011;68362;45.970;12.646;2024-02-23T03:07:41;13.82;;;8.93;;
78960;SDS011;68362;45.970;12.646;2024-02-23T03:08:43;12.55;;;8.10;;
78960;SDS011;68362;45.970;12.646;2024-02-23T03:09:45;15.60;;;8.85;;
78960;SDS011;68362;45.970;12.646;2024-02-23T03:10:48;12.93;;;7.65;;
78960;SDS011;68362;45.970;12.646;2024-02-23T03:11:50;13.48;;;8.23;;
78960;SDS011;68362;45.970;12.646;2024-02-23T03:12:52;10.85;;;6.97;;
78960;SDS011;68362;45.970;12.646;2024-02-23T03:13:54;13.30;;;8.00;;
78960;SDS011;68362;45.970;12.646;2024-02-23T03:14:57;13.45;;;8.88;;
78960;SDS011;68362;45.970;12.646;2024-02-23T03:15:59;12.00;;;7.20;;
78960;SDS011;68362;45.970;12.646;2024-02-23T03:17:01;11.27;;;7.47;;
78960;SDS011;68362;45.970;12.646;2024-02-23T03:18:05;10.15;;;6.93;;
78960;SDS011;68362;45.970;12.646;2024-02-23T03:19:11;11.48;;;6.65;;
78960;SDS011;68362;45.970;12.646;2024-02-23T03:20:15;11.75;;;6.90;;
78960;SDS011;68362;45.970;12.646;2024-02-23T03:21:18;8.05;;;6.00;;
78960;SDS011;68362;45.970;12.646;2024-02-23T03:22:20;9.68;;;6.63;;
78960;SDS011;68362;45.970;12.646;2024-02-23T03:23:22;8.90;;;5.40;;
78960;SDS011;68362;45.970;12.646;2024-02-23T03:24:25;9.13;;;5.45;;
78960;SDS011;68362;45.970;12.646;2024-02-23T03:25:27;9.30;;;5.20;;
78960;SDS011;68362;45.970;12.646;2024-02-23T03:26:29;8.77;;;5.80;;
78960;SDS011;68362;45.970;12.646;2024-02-23T03:27:31;7.90;;;5.13;;
78960;SDS011;68362;45.970;12.646;2024-02-23T03:28:34;8.63;;;5.00;;
78960;SDS011;68362;45.970;12.646;2024-02-23T03:29:38;7.20;;;4.80;;
78960;SDS011;68362;45.970;12.646;2024-02-23T03:30:41;8.15;;;4.43;;
78960;SDS011;68362;45.970;12.646;2024-02-23T03:32:46;8.63;;;5.28;;
78960;SDS011;68362;45.970;12.646;2024-02-23T03:33:49;6.95;;;4.60;;
78960;SDS011;68362;45.970;12.646;2024-02-23T03:34:51;7.28;;;4.78;;
78960;SDS011;68362;45.970;12.646;2024-02-23T03:35:53;7.78;;;5.38;;
78960;SDS011;68362;45.970;12.646;2024-02-23T03:36:57;8.05;;;4.57;;
78960;SDS011;68362;45.970;12.646;2024-02-23T03:38:00;8.43;;;4.88;;
78960;SDS011;68362;45.970;12.646;2024-02-23T03:39:02;10.80;;;5.50;;
78960;SDS011;68362;45.970;12.646;2024-02-23T03:40:05;7.70;;;5.05;;
78960;SDS011;68362;45.970;12.646;2024-02-23T03:41:08;8.43;;;5.03;;
78960;SDS011;68362;45.970;12.646;2024-02-23T03:42:10;9.45;;;5.53;;
78960;SDS011;68362;45.970;12.646;2024-02-23T03:43:12;7.10;;;5.57;;
78960;SDS011;68362;45.970;12.646;2024-02-23T03:44:14;9.38;;;5.75;;
78960;SDS011;68362;45.970;12.646;2024-02-23T03:45:16;7.60;;;5.18;;
78960;SDS011;68362;45.970;12.646;2024-02-23T03:46:19;10.02;;;6.18;;
78960;SDS011;68362;45.970;12.646;2024-02-23T03:47:21;10.38;;;6.22;;
78960;SDS011;68362;45.970;12.646;2024-02-23T03:48:24;9.77;;;5.72;;
78960;SDS011;68362;45.970;12.646;2024-02-23T03:49:26;8.35;;;5.18;;
78960;SDS011;68362;45.970;12.646;2024-02-23T03:50:28;11.18;;;6.32;;
78960;SDS011;68362;45.970;12.646;2024-02-23T03:51:31;7.53;;;5.55;;
78960;SDS011;68362;45.970;12.646;2024-02-23T03:52:34;9.52;;;6.18;;
78960;SDS011;68362;45.970;12.646;2024-02-23T03:53:36;8.93;;;5.57;;
78960;SDS011;68362;45.970;12.646;2024-02-23T03:54:39;9.63;;;5.40;;
78960;SDS011;68362;45.970;12.646;2024-02-23T03:55:41;9.50;;;5.10;;
78960;SDS011;68362;45.970;12.646;2024-02-23T03:56:43;11.45;;;6.15;;
78960;SDS011;68362;45.970;12.646;2024-02-23T03:57:45;10.10;;;4.80;;
78960;SDS011;68362;45.970;12.646;2024-02-23T03:58:48;9.38;;;5.10;;
78960;SDS011;68362;45.970;12.646;2024-02-23T03:59:56;10.05;;;4.35;;
78960;SDS011;68362;45.970;12.646;2024-02-23T04:00:59;8.07;;;4.82;;
78960;SDS011;68362;45.970;12.646;2024-02-23T04:02:01;11.57;;;5.15;;
78960;SDS011;68362;45.970;12.646;2024-02-23T04:03:03;9.77;;;5.68;;
78960;SDS011;68362;45.970;12.646;2024-02-23T04:04:05;12.50;;;5.57;;
78960;SDS011;68362;45.970;12.646;2024-02-23T04:05:09;9.43;;;4.93;;
78960;SDS011;68362;45.970;12.646;2024-02-23T04:06:11;8.07;;;5.10;;
78960;SDS011;68362;45.970;12.646;2024-02-23T04:07:13;7.60;;;4.82;;
78960;SDS011;68362;45.970;12.646;2024-02-23T04:08:15;9.27;;;5.00;;
78960;SDS011;68362;45.970;12.646;2024-02-23T04:09:18;5.97;;;3.65;;
78960;SDS011;68362;45.970;12.646;2024-02-23T04:10:20;9.20;;;5.22;;
78960;SDS011;68362;45.970;12.646;2024-02-23T04:11:22;10.23;;;4.65;;
78960;SDS011;68362;45.970;12.646;2024-02-23T04:12:24;10.05;;;5.45;;
78960;SDS011;68362;45.970;12.646;2024-02-23T04:13:27;10.13;;;4.60;;
78960;SDS011;68362;45.970;12.646;2024-02-23T04:14:29;9.57;;;4.55;;
78960;SDS011;68362;45.970;12.646;2024-02-23T04:15:31;6.90;;;4.43;;
78960;SDS011;68362;45.970;12.646;2024-02-23T04:16:33;7.32;;;3.88;;
78960;SDS011;68362;45.970;12.646;2024-02-23T04:17:36;7.43;;;4.70;;
78960;SDS011;68362;45.970;12.646;2024-02-23T04:18:38;14.27;;;6.03;;
78960;SDS011;68362;45.970;12.646;2024-02-23T04:19:41;9.80;;;4.70;;
78960;SDS011;68362;45.970;12.646;2024-02-23T04:21:46;9.75;;;4.63;;
78960;SDS011;68362;45.970;12.646;2024-02-23T04:22:48;9.93;;;4.22;;
78960;SDS011;68362;45.970;12.646;2024-02-23T04:23:50;7.07;;;4.20;;
78960;SDS011;68362;45.970;12.646;2024-02-23T04:24:53;9.10;;;4.47;;
78960;SDS011;68362;45.970;12.646;2024-02-23T04:25:55;8.23;;;4.68;;
78960;SDS011;68362;45.970;12.646;2024-02-23T04:26:57;11.23;;;4.63;;
78960;SDS011;68362;45.970;12.646;2024-02-23T04:27:59;7.30;;;3.90;;
78960;SDS011;68362;45.970;12.646;2024-02-23T04:29:02;7.28;;;4.35;;
78960;SDS011;68362;45.970;12.646;2024-02-23T04:30:04;9.15;;;4.00;;
78960;SDS011;68362;45.970;12.646;2024-02-23T04:31:08;8.32;;;4.45;;
78960;SDS011;68362;45.970;12.646;2024-02-23T04:32:10;10.63;;;4.70;;
78960;SDS011;68362;45.970;12.646;2024-02-23T04:33:13;7.70;;;3.90;;
78960;SDS011;68362;45.970;12.646;2024-02-23T04:34:15;6.22;;;4.28;;
78960;SDS011;68362;45.970;12.646;2024-02-23T04:35:18;10.70;;;4.47;;
78960;SDS011;68362;45.970;12.646;2024-02-23T04:36:20;7.03;;;4.25;;
78960;SDS011;68362;45.970;12.646;2024-02-23T04:37:22;7.65;;;4.45;;
78960;SDS011;68362;45.970;12.646;2024-02-23T04:38:25;7.93;;;4.15;;
78960;SDS011;68362;45.970;12.646;2024-02-23T04:39:27;8.02;;;4.50;;
78960;SDS011;68362;45.970;12.646;2024-02-23T04:40:29;8.93;;;4.13;;
78960;SDS011;68362;45.970;12.646;2024-02-23T04:41:31;5.55;;;4.07;;
78960;SDS011;68362;45.970;12.646;2024-02-23T04:42:34;7.70;;;4.30;;
78960;SDS011;68362;45.970;12.646;2024-02-23T04:43:36;6.82;;;4.97;;
78960;SDS011;68362;45.970;12.646;2024-02-23T04:44:38;7.25;;;4.00;;
78960;SDS011;68362;45.970;12.646;2024-02-23T04:45:43;6.43;;;4.28;;
78960;SDS011;68362;45.970;12.646;2024-02-23T04:46:46;7.07;;;4.47;;
78960;SDS011;68362;45.970;12.646;2024-02-23T04:47:48;5.63;;;3.85;;
78960;SDS011;68362;45.970;12.646;2024-02-23T04:48:50;9.63;;;4.72;;
78960;SDS011;68362;45.970;12.646;2024-02-23T04:49:52;6.15;;;4.05;;
78960;SDS011;68362;45.970;12.646;2024-02-23T04:50:55;7.82;;;4.82;;
78960;SDS011;68362;45.970;12.646;2024-02-23T04:51:57;6.35;;;4.03;;
78960;SDS011;68362;45.970;12.646;2024-02-23T04:53:00;6.68;;;4.35;;
78960;SDS011;68362;45.970;12.646;2024-02-23T04:54:02;7.60;;;4.75;;
78960;SDS011;68362;45.970;12.646;2024-02-23T04:56:07;8.98;;;3.95;;
78960;SDS011;68362;45.970;12.646;2024-02-23T04:57:09;7.47;;;3.88;;
78960;SDS011;68362;45.970;12.646;2024-02-23T04:58:11;9.40;;;4.70;;
78960;SDS011;68362;45.970;12.646;2024-02-23T04:59:14;7.00;;;4.00;;
78960;SDS011;68362;45.970;12.646;2024-02-23T05:00:16;8.23;;;4.10;;
78960;SDS011;68362;45.970;12.646;2024-02-23T05:01:19;6.95;;;4.70;;
78960;SDS011;68362;45.970;12.646;2024-02-23T05:02:22;7.00;;;3.83;;
78960;SDS011;68362;45.970;12.646;2024-02-23T05:03:24;9.07;;;4.47;;
78960;SDS011;68362;45.970;12.646;2024-02-23T05:04:27;7.78;;;4.65;;
78960;SDS011;68362;45.970;12.646;2024-02-23T05:05:30;5.35;;;4.25;;
78960;SDS011;68362;45.970;12.646;2024-02-23T05:06:33;9.38;;;4.05;;
78960;SDS011;68362;45.970;12.646;2024-02-23T05:07:37;6.07;;;4.18;;
78960;SDS011;68362;45.970;12.646;2024-02-23T05:08:40;12.25;;;3.80;;
78960;SDS011;68362;45.970;12.646;2024-02-23T05:10:45;8.50;;;3.90;;
78960;SDS011;68362;45.970;12.646;2024-02-23T05:11:49;8.10;;;3.80;;
78960;SDS011;68362;45.970;12.646;2024-02-23T05:12:52;7.50;;;3.90;;
78960;SDS011;68362;45.970;12.646;2024-02-23T05:13:54;6.45;;;4.03;;
78960;SDS011;68362;45.970;12.646;2024-02-23T05:14:57;9.52;;;4.55;;
78960;SDS011;68362;45.970;12.646;2024-02-23T05:16:00;6.30;;;4.22;;
78960;SDS011;68362;45.970;12.646;2024-02-23T05:17:02;5.82;;;3.67;;
78960;SDS011;68362;45.970;12.646;2024-02-23T05:19:08;5.40;;;3.45;;
78960;SDS011;68362;45.970;12.646;2024-02-23T05:20:11;7.85;;;3.75;;
78960;SDS011;68362;45.970;12.646;2024-02-23T05:21:14;6.32;;;3.65;;
78960;SDS011;68362;45.970;12.646;2024-02-23T05:22:17;8.50;;;3.95;;
78960;SDS011;68362;45.970;12.646;2024-02-23T05:23:20;6.82;;;3.70;;
78960;SDS011;68362;45.970;12.646;2024-02-23T05:24:23;7.57;;;4.18;;
78960;SDS011;68362;45.970;12.646;2024-02-23T05:25:25;9.18;;;4.57;;
78960;SDS011;68362;45.970;12.646;2024-02-23T05:26:28;10.30;;;4.03;;
78960;SDS011;68362;45.970;12.646;2024-02-23T05:27:31;8.15;;;4.25;;
78960;SDS011;68362;45.970;12.646;2024-02-23T05:28:34;5.93;;;3.80;;
78960;SDS011;68362;45.970;12.646;2024-02-23T05:29:36;9.55;;;4.43;;
78960;SDS011;68362;45.970;12.646;2024-02-23T05:30:39;7.22;;;4.03;;
78960;SDS011;68362;45.970;12.646;2024-02-23T05:31:51;6.65;;;4.60;;
78960;SDS011;68362;45.970;12.646;2024-02-23T05:32:55;6.45;;;3.88;;
78960;SDS011;68362;45.970;12.646;2024-02-23T05:33:59;7.13;;;3.90;;
78960;SDS011;68362;45.970;12.646;2024-02-23T05:35:01;6.88;;;3.92;;
78960;SDS011;68362;45.970;12.646;2024-02-23T05:36:05;6.70;;;4.20;;
78960;SDS011;68362;45.970;12.646;2024-02-23T05:37:09;7.10;;;4.00;;
78960;SDS011;68362;45.970;12.646;2024-02-23T05:38:11;5.95;;;4.00;;
78960;SDS011;68362;45.970;12.646;2024-02-23T05:39:14;6.45;;;3.80;;
78960;SDS011;68362;45.970;12.646;2024-02-23T05:40:19;6.32;;;4.18;;
78960;SDS011;68362;45.970;12.646;2024-02-23T05:41:23;8.63;;;3.97;;
78960;SDS011;68362;45.970;12.646;2024-02-23T05:42:25;8.68;;;4.30;;
78960;SDS011;68362;45.970;12.646;2024-02-23T05:44:30;5.82;;;4.07;;
78960;SDS011;68362;45.970;12.646;2024-02-23T05:45:33;7.10;;;4.10;;
78960;SDS011;68362;45.970;12.646;2024-02-23T05:46:36;8.38;;;4.13;;
78960;SDS011;68362;45.970;12.646;2024-02-23T05:47:38;6.78;;;4.40;;
78960;SDS011;68362;45.970;12.646;2024-02-23T05:48:45;8.73;;;4.28;;
78960;SDS011;68362;45.970;12.646;2024-02-23T05:50:51;11.43;;;4.25;;
78960;SDS011;68362;45.970;12.646;2024-02-23T05:51:54;6.55;;;3.92;;
78960;SDS011;68362;45.970;12.646;2024-02-23T05:52:57;8.68;;;4.60;;
78960;SDS011;68362;45.970;12.646;2024-02-23T05:54:00;13.63;;;4.78;;
78960;SDS011;68362;45.970;12.646;2024-02-23T05:55:03;6.70;;;3.72;;
78960;SDS011;68362;45.970;12.646;2024-02-23T05:56:06;7.53;;;4.57;;
78960;SDS011;68362;45.970;12.646;2024-02-23T05:57:13;6.82;;;4.22;;
78960;SDS011;68362;45.970;12.646;2024-02-23T05:58:16;12.23;;;5.05;;
78960;SDS011;68362;45.970;12.646;2024-02-23T05:59:19;9.00;;;4.97;;
78960;SDS011;68362;45.970;12.646;2024-02-23T06:00:21;9.18;;;4.45;;
78960;SDS011;68362;45.970;12.646;2024-02-23T06:01:24;7.32;;;4.43;;
78960;SDS011;68362;45.970;12.646;2024-02-23T06:03:29;8.48;;;4.47;;
78960;SDS011;68362;45.970;12.646;2024-02-23T06:04:32;10.00;;;4.70;;
78960;SDS011;68362;45.970;12.646;2024-02-23T06:05:34;8.98;;;5.18;;
78960;SDS011;68362;45.970;12.646;2024-02-23T06:06:37;10.25;;;4.85;;
78960;SDS011;68362;45.970;12.646;2024-02-23T06:07:44;8.15;;;4.88;;
78960;SDS011;68362;45.970;12.646;2024-02-23T06:08:47;11.77;;;4.43;;
78960;SDS011;68362;45.970;12.646;2024-02-23T06:09:51;9.18;;;5.07;;
78960;SDS011;68362;45.970;12.646;2024-02-23T06:10:54;10.75;;;6.53;;
78960;SDS011;68362;45.970;12.646;2024-02-23T06:11:56;13.10;;;5.55;;
78960;SDS011;68362;45.970;12.646;2024-02-23T06:12:59;8.95;;;4.47;;
78960;SDS011;68362;45.970;12.646;2024-02-23T06:14:04;10.63;;;4.55;;
78960;SDS011;68362;45.970;12.646;2024-02-23T06:15:07;6.07;;;4.22;;
78960;SDS011;68362;45.970;12.646;2024-02-23T06:16:10;7.75;;;4.82;;
78960;SDS011;68362;45.970;12.646;2024-02-23T06:17:13;10.10;;;5.10;;
78960;SDS011;68362;45.970;12.646;2024-02-23T06:18:16;8.50;;;4.78;;
78960;SDS011;68362;45.970;12.646;2024-02-23T06:20:21;12.00;;;4.70;;